Terminal Aerodrome Forecast
Issued by NWS

Home | Current Version | Previous Version | Text Only | Print | Product List | Glossary On
Versions: 1 2 3 4 5 6 7 8 9 10 11 12 13 14
000
FTUS43 KILX 011700
TAFCMI
TAF
KCMI 011734Z 0118/0218 17012G22KT P6SM SCT250
     FM020200 17014KT P6SM BKN250 WS020/20045KT
     FM020800 17014KT P6SM VCTS BKN050CB WS020/20045KT
     FM021600 20014KT 6SM -SHRA VCTS BKN035CB=

USA.gov is the U.S. government's official web portal to all federal, state and local government web resources and services.